createdAt,value
2022-12-02T00:02:59.211Z,41.30
2022-12-02T00:18:00.700Z,41.20
2022-12-02T00:33:02.158Z,41.20
2022-12-02T00:48:03.707Z,41.20
2022-12-02T01:03:05.176Z,41.20
2022-12-02T01:18:06.621Z,41.00
2022-12-02T01:33:08.070Z,41.10
2022-12-02T01:48:09.533Z,41.00
2022-12-02T02:03:10.997Z,41.00
2022-12-02T02:18:12.453Z,41.00
2022-12-02T02:33:13.921Z,41.00
2022-12-02T02:48:15.372Z,40.90
2022-12-02T03:03:16.872Z,41.00
2022-12-02T03:18:18.329Z,40.90
2022-12-02T03:33:19.789Z,40.90
2022-12-02T03:48:21.237Z,40.90
2022-12-02T04:03:22.713Z,40.70
2022-12-02T04:18:24.176Z,40.70
2022-12-02T04:33:25.663Z,40.80
2022-12-02T04:48:27.120Z,40.80
2022-12-02T05:03:28.594Z,40.70
2022-12-02T05:18:30.042Z,40.60
2022-12-02T05:33:31.504Z,40.60
2022-12-02T05:48:32.953Z,40.50
2022-12-02T06:03:34.498Z,40.50
2022-12-02T06:18:36.001Z,40.50
2022-12-02T06:33:37.499Z,40.60
2022-12-02T06:48:38.959Z,41.00
2022-12-02T07:03:40.425Z,41.10
2022-12-02T07:18:41.891Z,40.70
2022-12-02T07:33:43.354Z,40.60
2022-12-02T07:48:44.796Z,40.70
2022-12-02T08:03:46.300Z,40.20
2022-12-02T08:18:47.737Z,40.60
2022-12-02T08:33:49.187Z,40.40
2022-12-02T08:48:50.675Z,40.40
2022-12-02T09:03:52.307Z,40.20
2022-12-02T09:18:53.796Z,40.20
2022-12-02T09:33:55.251Z,40.00
2022-12-02T09:48:56.718Z,40.00
2022-12-02T10:03:58.186Z,40.00
2022-12-02T10:18:59.653Z,39.40
2022-12-02T10:34:01.114Z,38.50
2022-12-02T10:49:02.580Z,38.10
2022-12-02T11:04:04.136Z,38.40
2022-12-02T11:19:05.628Z,38.60
2022-12-02T11:34:07.161Z,38.40
2022-12-02T11:49:08.654Z,38.30
2022-12-02T12:04:10.112Z,38.30
2022-12-02T12:19:11.569Z,38.40
2022-12-02T12:34:13.030Z,38.30
2022-12-02T12:49:15.732Z,38.40
2022-12-02T13:04:20.183Z,38.20
2022-12-02T13:19:21.641Z,38.00
2022-12-02T13:34:23.100Z,38.20
2022-12-02T13:49:24.569Z,38.30
2022-12-02T14:04:26.015Z,38.20
2022-12-02T14:19:27.465Z,38.00
2022-12-02T14:34:28.910Z,37.90
2022-12-02T14:49:39.603Z,37.80
2022-12-02T15:04:41.913Z,37.70
2022-12-02T15:19:43.367Z,37.20
2022-12-02T15:34:44.833Z,37.50
2022-12-02T15:49:46.530Z,37.80
2022-12-02T16:04:47.977Z,37.80
2022-12-02T16:19:49.555Z,37.80
2022-12-02T16:34:51.279Z,37.70
2022-12-02T16:49:53.142Z,37.70
2022-12-02T17:04:54.836Z,37.30
2022-12-02T17:19:56.392Z,37.50
2022-12-02T17:34:57.887Z,37.40
2022-12-02T17:49:59.358Z,37.40
2022-12-02T18:05:00.821Z,37.10
2022-12-02T18:20:02.269Z,37.00
2022-12-02T18:35:03.741Z,36.80
2022-12-02T18:50:05.208Z,36.60
2022-12-02T19:05:06.681Z,36.80
2022-12-02T19:20:08.152Z,36.80
2022-12-02T19:35:09.594Z,36.90
2022-12-02T19:50:11.048Z,36.60
2022-12-02T20:05:12.524Z,36.70
2022-12-02T20:20:13.996Z,36.60
2022-12-02T20:35:15.473Z,36.50
2022-12-02T20:50:16.936Z,36.40
2022-12-02T21:05:18.393Z,36.40
2022-12-02T21:20:19.898Z,36.30
2022-12-02T21:35:21.387Z,36.30
2022-12-02T21:50:22.819Z,36.50
2022-12-02T22:05:24.268Z,36.00
2022-12-02T22:20:25.720Z,36.00
2022-12-02T22:35:27.174Z,36.00
2022-12-02T22:50:28.645Z,35.90
2022-12-02T23:05:30.126Z,36.00
2022-12-02T23:20:31.617Z,36.10
2022-12-02T23:35:33.080Z,36.20
2022-12-02T23:50:34.678Z,36.30
